^^
Meteo Knjazevac Station Historical Data
Daily Summary for November 13, 2021 Units:  English    Metric   Both
Daily Weekly Monthly Yearly Custom
  High: Low: Average:
Temperature: 54.5 °F 25.5 °F 37.1 °F
Dew Point: 46.9 °F 24.5 °F 34.4 °F
Humidity: 99% 74% 91%
Wind Speed: 5mph 0mph 1mph
Wind Gust: 9mph - -
Wind- - SW
Pressure: 30.28 in 30.18 in -
Precipitation: 0.00 in    
Historical Graphs
 
 
Tabular Data for November 13, 2021
Time Temperature Dew Point Pressure Wind Wind Speed Wind Gust Humidity Rainfall Rate (Hourly) solar Conditions
00:00 30.7 °F 29.2 °F 30.25 in Calm     94% 0.00 in 0 W/m2
00:10 30.4 °F 28.9 °F 30.25 in NW 1 mph 2 mph 94% 0.00 in 0 W/m2
00:20 30.2 °F 28.7 °F 30.25 in Calm   2 mph 94% 0.00 in 0 W/m2
00:30 30.2 °F 28.9 °F 30.25 in WNW 1 mph 2 mph 95% 0.00 in 0 W/m2
00:40 30 °F 28.8 °F 30.25 in NW 1 mph 2 mph 95% 0.00 in 0 W/m2
00:50 29.8 °F 28.8 °F 30.25 in WNW 2 mph 4 mph 96% 0.00 in 0 W/m2
01:00 30 °F 29 °F 30.25 in Calm   4 mph 96% 0.00 in 0 W/m2
01:10 30 °F 29 °F 30.25 in Calm   2 mph 96% 0.00 in 0 W/m2
01:20 29.8 °F 28.8 °F 30.25 in Calm   2 mph 96% 0.00 in 0 W/m2
01:30 29.7 °F 28.4 °F 30.25 in NNW 1 mph 2 mph 95% 0.00 in 0 W/m2
01:40 29.5 °F 28.5 °F 30.25 in NW 1 mph 3 mph 96% 0.00 in 0 W/m2
01:50 29.3 °F 28 °F 30.25 in Calm   2 mph 95% 0.00 in 0 W/m2
02:00 29 °F 27.7 °F 30.25 in Calm   2 mph 95% 0.00 in 0 W/m2
02:10 28.8 °F 27.5 °F 30.25 in Calm   2 mph 95% 0.00 in 0 W/m2
02:20 28.6 °F 27.3 °F 30.25 in Calm   2 mph 95% 0.00 in 0 W/m2
02:30 28.4 °F 27.2 °F 30.24 in Calm   2 mph 95% 0.00 in 0 W/m2
02:40 28.2 °F 27 °F 30.24 in Calm   1 mph 95% 0.00 in 0 W/m2
02:50 28.2 °F 27.2 °F 30.24 in North 1 mph 2 mph 96% 0.00 in 0 W/m2
03:00 28 °F 26.8 °F 30.24 in NW 2 mph 3 mph 95% 0.00 in 0 W/m2
03:10 28 °F 27 °F 30.24 in North 1 mph 3 mph 96% 0.00 in 0 W/m2
03:20 28 °F 27 °F 30.24 in Calm   2 mph 96% 0.00 in 0 W/m2
03:30 27.9 °F 26.9 °F 30.24 in Calm   2 mph 96% 0.00 in 0 W/m2
03:40 27.5 °F 26.3 °F 30.24 in WNW 1 mph 2 mph 95% 0.00 in 0 W/m2
03:50 27.3 °F 26.1 °F 30.25 in West 1 mph 3 mph 95% 0.00 in 0 W/m2
04:00 27.1 °F 25.9 °F 30.25 in WNW 2 mph 3 mph 95% 0.00 in 0 W/m2
04:10 27 °F 26 °F 30.25 in WNW 2 mph 3 mph 96% 0.00 in 0 W/m2
04:20 26.8 °F 25.8 °F 30.25 in West 1 mph 2 mph 96% 0.00 in 0 W/m2
04:30 26.6 °F 25.6 °F 30.25 in West 1 mph 2 mph 96% 0.00 in 0 W/m2
04:40 26.4 °F 25.4 °F 30.25 in WNW 2 mph 2 mph 96% 0.00 in 0 W/m2
04:50 26.2 °F 25.3 °F 30.25 in WNW 2 mph 3 mph 96% 0.00 in 0 W/m2
05:00 26.1 °F 25.1 °F 30.25 in WNW 2 mph 3 mph 96% 0.00 in 0 W/m2
05:10 26.1 °F 25.1 °F 30.25 in West 1 mph 3 mph 96% 0.00 in 0 W/m2
05:20 25.9 °F 24.9 °F 30.25 in WNW 1 mph 2 mph 96% 0.00 in 0 W/m2
05:30 25.9 °F 25.4 °F 30.25 in WNW 1 mph 2 mph 98% 0.00 in 0 W/m2
05:40 25.9 °F 25.4 °F 30.25 in West 2 mph 2 mph 98% 0.00 in 0 W/m2
06:00 25.7 °F 25.2 °F 30.26 in Calm   2 mph 98% 0.00 in 0 W/m2
06:10 25.7 °F 25.2 °F 30.26 in NNW 1 mph 2 mph 98% 0.00 in 0 W/m2
06:20 25.5 °F 25 °F 30.26 in NNW 1 mph 2 mph 98% 0.00 in 0 W/m2
06:30 25.5 °F 24.5 °F 30.26 in WNW 1 mph 2 mph 96% 0.00 in 7 W/m2
06:40 25.5 °F 24.5 °F 30.26 in NW 1 mph 2 mph 96% 0.00 in 14 W/m2
06:50 25.5 °F 25 °F 30.26 in WNW 1 mph 3 mph 98% 0.00 in 22 W/m2
07:00 25.7 °F 25.2 °F 30.27 in WNW 1 mph 2 mph 98% 0.00 in 31 W/m2
07:10 25.9 °F 25.4 °F 30.27 in Calm   2 mph 98% 0.00 in 47 W/m2
07:20 26.2 °F 26 °F 30.27 in West 1 mph 2 mph 99% 0.00 in 50 W/m2
07:30 26.4 °F 26.2 °F 30.27 in Calm   2 mph 99% 0.00 in 67 W/m2
07:40 26.8 °F 26.5 °F 30.27 in Calm   2 mph 99% 0.00 in 72 W/m2
07:50 27.1 °F 26.9 °F 30.27 in NW 2 mph 3 mph 99% 0.00 in 84 W/m2
08:00 27.5 °F 27.3 °F 30.27 in NW 1 mph 3 mph 99% 0.00 in 108 W/m2
08:10 28 °F 27.8 °F 30.27 in Calm   2 mph 99% 0.00 in 108 W/m2
08:20 28.6 °F 28.3 °F 30.28 in WNW 1 mph 2 mph 99% 0.00 in 121 W/m2
08:30 28.9 °F 28.7 °F 30.27 in West 1 mph 3 mph 99% 0.00 in 153 W/m2
08:40 29.5 °F 29.2 °F 30.27 in Calm   2 mph 99% 0.00 in 167 W/m2
08:50 30 °F 29.7 °F 30.27 in Calm   2 mph 99% 0.00 in 167 W/m2
09:00 30.5 °F 30.3 °F 30.27 in WNW 1 mph 2 mph 99% 0.00 in 176 W/m2
09:10 31.4 °F 31.2 °F 30.27 in Calm   2 mph 99% 0.00 in 223 W/m2
09:20 32.3 °F 32.1 °F 30.27 in WSW 1 mph 3 mph 99% 0.00 in 286 W/m2
09:30 33.3 °F 33 °F 30.27 in WSW 1 mph 3 mph 99% 0.00 in 314 W/m2
09:40 34.5 °F 34.2 °F 30.27 in SSW 1 mph 3 mph 99% 0.00 in 314 W/m2
09:50 35.8 °F 35.5 °F 30.27 in Calm   4 mph 99% 0.00 in 341 W/m2
10:00 36.7 °F 35.6 °F 30.27 in Calm   5 mph 96% 0.00 in 361 W/m2
10:10 37.9 °F 36.6 °F 30.27 in Calm   3 mph 95% 0.00 in 382 W/m2
10:20 39.2 °F 37.3 °F 30.27 in NE 2 mph 4 mph 93% 0.00 in 387 W/m2
10:30 40.1 °F 37.7 °F 30.26 in ENE 2 mph 7 mph 91% 0.00 in 413 W/m2
10:40 41.3 °F 39.5 °F 30.26 in North 2 mph 7 mph 93% 0.00 in 407 W/m2
10:50 42.8 °F 40.3 °F 30.26 in NNE 3 mph 7 mph 91% 0.00 in 406 W/m2
11:00 43.9 °F 41.1 °F 30.25 in NNE 2 mph 9 mph 90% 0.00 in 425 W/m2
11:10 45 °F 41.6 °F 30.25 in NNE 3 mph 6 mph 88% 0.00 in 418 W/m2
11:20 45.5 °F 41.6 °F 30.25 in ENE 1 mph 5 mph 86% 0.00 in 420 W/m2
11:30 46 °F 41.8 °F 30.25 in East 3 mph 5 mph 85% 0.00 in 317 W/m2
11:40 46.4 °F 42.1 °F 30.24 in ENE 1 mph 6 mph 85% 0.00 in 382 W/m2
11:50 47.3 °F 42.7 °F 30.23 in ESE 2 mph 6 mph 84% 0.00 in 290 W/m2
12:00 48 °F 43.4 °F 30.23 in ENE 2 mph 7 mph 84% 0.00 in 325 W/m2
12:10 48.9 °F 44 °F 30.22 in NNE 1 mph 8 mph 83% 0.00 in 290 W/m2
12:20 49.8 °F 44.9 °F 30.22 in NE 3 mph 7 mph 83% 0.00 in 306 W/m2
12:30 50.7 °F 44.8 °F 30.22 in North 3 mph 6 mph 80% 0.00 in 259 W/m2
12:40 51.3 °F 45.3 °F 30.21 in North 1 mph 6 mph 80% 0.00 in 348 W/m2
12:50 52.2 °F 45.8 °F 30.21 in North 5 mph 7 mph 79% 0.00 in 357 W/m2
13:00 52.7 °F 45.7 °F 30.21 in NW 3 mph 7 mph 77% 0.00 in 343 W/m2
13:10 53.1 °F 46 °F 30.20 in WSW 1 mph 5 mph 77% 0.00 in 327 W/m2
13:20 53.8 °F 46.7 °F 30.20 in North 3 mph 8 mph 77% 0.00 in 304 W/m2
13:30 54 °F 46.9 °F 30.20 in NNE 3 mph 7 mph 77% 0.00 in 293 W/m2
13:40 54 °F 46.2 °F 30.19 in North 3 mph 7 mph 75% 0.00 in 274 W/m2
13:50 54.1 °F 46.4 °F 30.19 in North 3 mph 7 mph 75% 0.00 in 254 W/m2
14:00 54.5 °F 46.4 °F 30.19 in North 5 mph 8 mph 74% 0.00 in 207 W/m2
14:10 54.5 °F 46.4 °F 30.19 in North 1 mph 7 mph 74% 0.00 in 178 W/m2
14:20 54.5 °F 46.4 °F 30.19 in North 3 mph 7 mph 74% 0.00 in 164 W/m2
14:30 54.3 °F 46.2 °F 30.19 in North 3 mph 7 mph 74% 0.00 in 169 W/m2
14:40 54.1 °F 46 °F 30.19 in North 2 mph 7 mph 74% 0.00 in 119 W/m2
14:50 53.6 °F 45.5 °F 30.19 in North 5 mph 7 mph 74% 0.00 in 79 W/m2
15:00 53.1 °F 45.3 °F 30.19 in North 2 mph 6 mph 75% 0.00 in 67 W/m2
15:10 52.5 °F 44.8 °F 30.18 in North 2 mph 5 mph 75% 0.00 in 51 W/m2
15:20 52 °F 45 °F 30.19 in NNW 1 mph 7 mph 77% 0.00 in 41 W/m2
15:30 51.4 °F 44.5 °F 30.18 in Calm   3 mph 77% 0.00 in 32 W/m2
15:40 51.1 °F 44.5 °F 30.19 in North 1 mph 4 mph 78% 0.00 in 23 W/m2
15:50 50.4 °F 43.8 °F 30.19 in North 2 mph 6 mph 78% 0.00 in 7 W/m2
16:00 49.8 °F 43.6 °F 30.19 in North 2 mph 6 mph 79% 0.00 in 7 W/m2
16:10 49.3 °F 43.4 °F 30.19 in NW 1 mph 6 mph 80% 0.00 in 0 W/m2
16:20 48.7 °F 42.8 °F 30.18 in NNW 1 mph 5 mph 80% 0.00 in 0 W/m2
16:30 48 °F 42.5 °F 30.19 in NNW 1 mph 5 mph 81% 0.00 in 0 W/m2
16:40 47.5 °F 41.9 °F 30.19 in NNW 1 mph 5 mph 81% 0.00 in 0 W/m2
16:50 46.9 °F 42 °F 30.19 in Calm   5 mph 83% 0.00 in 0 W/m2
17:00 46.2 °F 41.7 °F 30.19 in Calm   2 mph 84% 0.00 in 0 W/m2
17:10 45.7 °F 41.1 °F 30.20 in Calm   2 mph 84% 0.00 in 0 W/m2
17:20 45.1 °F 40.9 °F 30.20 in Calm   2 mph 85% 0.00 in 0 W/m2
17:30 44.2 °F 40 °F 30.20 in Calm   2 mph 85% 0.00 in 0 W/m2
17:40 43.7 °F 39.5 °F 30.20 in Calm   2 mph 85% 0.00 in 0 W/m2
17:50 43 °F 38.8 °F 30.20 in WNW 1 mph 2 mph 85% 0.00 in 0 W/m2
18:00 42.3 °F 38.4 °F 30.21 in WNW 1 mph 2 mph 86% 0.00 in 0 W/m2
18:10 41.7 °F 38.4 °F 30.21 in Calm   3 mph 88% 0.00 in 0 W/m2
18:20 41.2 °F 37.3 °F 30.21 in NW 1 mph 2 mph 86% 0.00 in 0 W/m2
18:30 40.5 °F 37.2 °F 30.21 in NNW 1 mph 3 mph 88% 0.00 in 0 W/m2
18:40 39.9 °F 36.6 °F 30.21 in Calm   3 mph 88% 0.00 in 0 W/m2
18:50 39.6 °F 36.6 °F 30.21 in Calm   2 mph 89% 0.00 in 0 W/m2
19:00 39.2 °F 36.5 °F 30.21 in NW 1 mph 3 mph 90% 0.00 in 0 W/m2
19:10 38.8 °F 36.2 °F 30.21 in Calm   2 mph 90% 0.00 in 0 W/m2
19:20 38.5 °F 35.8 °F 30.21 in NW 2 mph 3 mph 90% 0.00 in 0 W/m2
19:30 38.1 °F 35.4 °F 30.21 in Calm   2 mph 90% 0.00 in 0 W/m2
19:40 37.8 °F 35.4 °F 30.22 in Calm   1 mph 91% 0.00 in 0 W/m2
19:50 37.4 °F 35 °F 30.21 in Calm   2 mph 91% 0.00 in 0 W/m2
20:00 37 °F 34.4 °F 30.22 in Calm   2 mph 90% 0.00 in 0 W/m2
20:10 36.5 °F 34.1 °F 30.22 in Calm   2 mph 91% 0.00 in 0 W/m2
20:20 36.1 °F 34.3 °F 30.22 in Calm   2 mph 93% 0.00 in 0 W/m2
20:30 35.8 °F 34 °F 30.22 in Calm   2 mph 93% 0.00 in 0 W/m2
20:40 35.6 °F 33.8 °F 30.22 in Calm   2 mph 93% 0.00 in 0 W/m2
20:50 35.2 °F 33.4 °F 30.22 in Calm   1 mph 93% 0.00 in 0 W/m2
21:00 34.9 °F 33.1 °F 30.23 in NNW 1 mph 2 mph 93% 0.00 in 0 W/m2
21:10 34.5 °F 32.7 °F 30.23 in Calm   2 mph 93% 0.00 in 0 W/m2
21:20 34.2 °F 32.3 °F 30.23 in Calm     93% 0.00 in 0 W/m2
21:30 34 °F 32.2 °F 30.23 in Calm   2 mph 93% 0.00 in 0 W/m2
21:40 33.8 °F 32 °F 30.23 in Calm   2 mph 93% 0.00 in 0 W/m2
21:50 33.4 °F 31.9 °F 30.23 in West 2 mph 4 mph 94% 0.00 in 0 W/m2
22:00 33.8 °F 32.8 °F 30.23 in WNW 2 mph 5 mph 96% 0.00 in 0 W/m2
22:10 34 °F 33.5 °F 30.23 in Calm   4 mph 98% 0.00 in 0 W/m2
22:20 34 °F 33 °F 30.23 in Calm   2 mph 96% 0.00 in 0 W/m2
22:30 33.8 °F 32.8 °F 30.23 in West 1 mph 3 mph 96% 0.00 in 0 W/m2
22:40 33.8 °F 32.5 °F 30.23 in Calm   2 mph 95% 0.00 in 0 W/m2
22:50 33.6 °F 32.3 °F 30.23 in Calm   4 mph 95% 0.00 in 0 W/m2
23:00 33.6 °F 32.3 °F 30.23 in Calm   3 mph 95% 0.00 in 0 W/m2
23:10 33.8 °F 32.8 °F 30.23 in Calm   3 mph 96% 0.00 in 0 W/m2
23:20 34.2 °F 33.1 °F 30.23 in NW 1 mph 2 mph 96% 0.00 in 0 W/m2
23:30 34.2 °F 33.1 °F 30.24 in Calm   1 mph 96% 0.00 in 0 W/m2
23:40 34.3 °F 33.3 °F 30.24 in Calm   1 mph 96% 0.00 in 0 W/m2
23:50 34.5 °F 34 °F 30.23 in Calm   2 mph 98% 0.00 in 0 W/m2
Knjazevac, Serbia
Compliments of Weather Underground - 2 mb